sensor_id;sensor_type;location;lat;lon;timestamp;pressure;altitude;pressure_sealevel;temperature;humidity
45403;BME280;47427;51.976;5.326;2023-05-25T00:02:14;102579.63;;;9.52;100.00
45403;BME280;47427;51.976;5.326;2023-05-25T00:05:37;102572.50;;;9.50;100.00
45403;BME280;47427;51.976;5.326;2023-05-25T00:08:59;102576.91;;;9.51;100.00
45403;BME280;47427;51.976;5.326;2023-05-25T00:12:22;102579.63;;;9.52;100.00
45403;BME280;47427;51.976;5.326;2023-05-25T00:15:45;102568.22;;;9.52;100.00
45403;BME280;47427;51.976;5.326;2023-05-25T00:19:07;102567.97;;;9.47;100.00
45403;BME280;47427;51.976;5.326;2023-05-25T00:22:35;102570.50;;;9.46;100.00
45403;BME280;47427;51.976;5.326;2023-05-25T00:26:01;102571.22;;;9.43;100.00
45403;BME280;47427;51.976;5.326;2023-05-25T00:29:24;102575.47;;;9.41;100.00
45403;BME280;47427;51.976;5.326;2023-05-25T00:32:47;102579.53;;;9.36;100.00
45403;BME280;47427;51.976;5.326;2023-05-25T00:36:09;102577.56;;;9.32;100.00
45403;BME280;47427;51.976;5.326;2023-05-25T00:39:31;102582.59;;;9.29;100.00
45403;BME280;47427;51.976;5.326;2023-05-25T00:42:55;102577.91;;;9.23;100.00
45403;BME280;47427;51.976;5.326;2023-05-25T00:46:18;102590.81;;;9.20;100.00
45403;BME280;47427;51.976;5.326;2023-05-25T00:49:41;102578.09;;;9.11;100.00
45403;BME280;47427;51.976;5.326;2023-05-25T00:53:04;102574.38;;;9.08;100.00
45403;BME280;47427;51.976;5.326;2023-05-25T00:56:33;102576.34;;;8.97;100.00
45403;BME280;47427;51.976;5.326;2023-05-25T00:59:57;102580.41;;;8.92;100.00
45403;BME280;47427;51.976;5.326;2023-05-25T01:03:20;102583.56;;;8.86;100.00
45403;BME280;47427;51.976;5.326;2023-05-25T01:06:47;102592.38;;;8.74;100.00
45403;BME280;47427;51.976;5.326;2023-05-25T01:10:10;102591.91;;;8.66;100.00
45403;BME280;47427;51.976;5.326;2023-05-25T01:13:34;102591.78;;;8.64;100.00
45403;BME280;47427;51.976;5.326;2023-05-25T01:16:59;102592.22;;;8.57;100.00
45403;BME280;47427;51.976;5.326;2023-05-25T01:20:27;102599.78;;;8.53;100.00
45403;BME280;47427;51.976;5.326;2023-05-25T01:24:24;102596.69;;;8.45;100.00
45403;BME280;47427;51.976;5.326;2023-05-25T01:28:06;102590.25;;;8.40;100.00
45403;BME280;47427;51.976;5.326;2023-05-25T01:31:31;102606.56;;;8.36;100.00
45403;BME280;47427;51.976;5.326;2023-05-25T01:34:57;102608.94;;;8.33;100.00
45403;BME280;47427;51.976;5.326;2023-05-25T01:38:19;102619.31;;;8.31;100.00
45403;BME280;47427;51.976;5.326;2023-05-25T01:41:42;102619.13;;;8.28;100.00
45403;BME280;47427;51.976;5.326;2023-05-25T01:45:06;102626.06;;;8.28;100.00
45403;BME280;47427;51.976;5.326;2023-05-25T01:49:11;102630.19;;;8.24;100.00
45403;BME280;47427;51.976;5.326;2023-05-25T01:52:44;102631.72;;;8.20;100.00
45403;BME280;47427;51.976;5.326;2023-05-25T01:56:09;102622.75;;;8.17;100.00
45403;BME280;47427;51.976;5.326;2023-05-25T01:59:33;102629.28;;;8.23;100.00
45403;BME280;47427;51.976;5.326;2023-05-25T02:02:57;102633.13;;;8.15;100.00
45403;BME280;47427;51.976;5.326;2023-05-25T02:06:21;102621.25;;;8.07;100.00
45403;BME280;47427;51.976;5.326;2023-05-25T02:09:44;102621.88;;;8.03;100.00
45403;BME280;47427;51.976;5.326;2023-05-25T02:13:06;102615.72;;;8.02;100.00
45403;BME280;47427;51.976;5.326;2023-05-25T02:16:29;102624.38;;;8.01;100.00
45403;BME280;47427;51.976;5.326;2023-05-25T02:19:54;102629.31;;;7.97;100.00
45403;BME280;47427;51.976;5.326;2023-05-25T02:23:17;102623.75;;;7.92;100.00
45403;BME280;47427;51.976;5.326;2023-05-25T02:26:40;102632.53;;;7.93;100.00
45403;BME280;47427;51.976;5.326;2023-05-25T02:30:03;102634.84;;;7.88;100.00
45403;BME280;47427;51.976;5.326;2023-05-25T02:33:26;102633.84;;;7.86;100.00
45403;BME280;47427;51.976;5.326;2023-05-25T02:36:48;102644.19;;;7.85;100.00
45403;BME280;47427;51.976;5.326;2023-05-25T02:40:11;102641.28;;;7.80;100.00
45403;BME280;47427;51.976;5.326;2023-05-25T02:43:33;102629.81;;;7.78;100.00
45403;BME280;47427;51.976;5.326;2023-05-25T02:46:56;102634.84;;;7.75;100.00
45403;BME280;47427;51.976;5.326;2023-05-25T02:50:19;102630.41;;;7.74;100.00
45403;BME280;47427;51.976;5.326;2023-05-25T02:53:46;102631.09;;;7.71;100.00
45403;BME280;47427;51.976;5.326;2023-05-25T02:57:09;102637.94;;;7.69;100.00
45403;BME280;47427;51.976;5.326;2023-05-25T03:00:31;102630.72;;;7.65;100.00
45403;BME280;47427;51.976;5.326;2023-05-25T03:03:54;102627.69;;;7.59;100.00
45403;BME280;47427;51.976;5.326;2023-05-25T03:07:19;102635.50;;;7.59;100.00
45403;BME280;47427;51.976;5.326;2023-05-25T03:10:43;102645.63;;;7.54;100.00
45403;BME280;47427;51.976;5.326;2023-05-25T03:14:08;102643.97;;;7.55;100.00
45403;BME280;47427;51.976;5.326;2023-05-25T03:17:31;102643.66;;;7.50;100.00
45403;BME280;47427;51.976;5.326;2023-05-25T03:20:53;102645.38;;;7.50;100.00
45403;BME280;47427;51.976;5.326;2023-05-25T03:24:16;102645.94;;;7.46;100.00
45403;BME280;47427;51.976;5.326;2023-05-25T03:27:39;102654.34;;;7.42;100.00
45403;BME280;47427;51.976;5.326;2023-05-25T03:31:03;102654.34;;;7.42;100.00
45403;BME280;47427;51.976;5.326;2023-05-25T03:34:27;102661.28;;;7.41;100.00
45403;BME280;47427;51.976;5.326;2023-05-25T03:37:49;102662.31;;;7.43;100.00
45403;BME280;47427;51.976;5.326;2023-05-25T03:41:12;102666.50;;;7.41;100.00
45403;BME280;47427;51.976;5.326;2023-05-25T03:44:35;102661.63;;;7.46;100.00
45403;BME280;47427;51.976;5.326;2023-05-25T03:47:56;102668.44;;;7.44;100.00
45403;BME280;47427;51.976;5.326;2023-05-25T03:51:19;102664.91;;;7.43;100.00
45403;BME280;47427;51.976;5.326;2023-05-25T03:54:41;102662.31;;;7.43;100.00
45403;BME280;47427;51.976;5.326;2023-05-25T03:58:04;102669.34;;;7.44;100.00
45403;BME280;47427;51.976;5.326;2023-05-25T04:01:26;102670.47;;;7.48;100.00
45403;BME280;47427;51.976;5.326;2023-05-25T04:04:50;102667.94;;;7.49;100.00
45403;BME280;47427;51.976;5.326;2023-05-25T04:08:35;102669.06;;;7.53;100.00
45403;BME280;47427;51.976;5.326;2023-05-25T04:11:56;102675.50;;;7.58;100.00
45403;BME280;47427;51.976;5.326;2023-05-25T04:15:19;102673.09;;;7.61;100.00
45403;BME280;47427;51.976;5.326;2023-05-25T04:18:55;102675.13;;;7.65;100.00
45403;BME280;47427;51.976;5.326;2023-05-25T04:22:17;102662.16;;;7.67;100.00
45403;BME280;47427;51.976;5.326;2023-05-25T04:25:59;102676.66;;;7.75;100.00
45403;BME280;47427;51.976;5.326;2023-05-25T04:29:21;102682.28;;;7.81;100.00
45403;BME280;47427;51.976;5.326;2023-05-25T04:32:57;102679.84;;;7.84;100.00
45403;BME280;47427;51.976;5.326;2023-05-25T04:36:30;102691.03;;;7.95;100.00
45403;BME280;47427;51.976;5.326;2023-05-25T04:39:58;102686.91;;;7.98;100.00
45403;BME280;47427;51.976;5.326;2023-05-25T04:43:20;102700.69;;;8.09;100.00
45403;BME280;47427;51.976;5.326;2023-05-25T04:47:02;102701.19;;;8.17;100.00
45403;BME280;47427;51.976;5.326;2023-05-25T04:50:27;102705.22;;;8.25;100.00
45403;BME280;47427;51.976;5.326;2023-05-25T04:53:50;102714.38;;;8.32;100.00
45403;BME280;47427;51.976;5.326;2023-05-25T04:57:13;102718.53;;;8.41;100.00
45403;BME280;47427;51.976;5.326;2023-05-25T05:00:36;102716.41;;;8.49;100.00
45403;BME280;47427;51.976;5.326;2023-05-25T05:04:01;102717.91;;;8.59;100.00
45403;BME280;47427;51.976;5.326;2023-05-25T05:07:23;102719.50;;;8.70;100.00
45403;BME280;47427;51.976;5.326;2023-05-25T05:10:45;102728.00;;;8.81;100.00
45403;BME280;47427;51.976;5.326;2023-05-25T05:14:08;102728.72;;;8.92;100.00
45403;BME280;47427;51.976;5.326;2023-05-25T05:17:30;102724.88;;;9.00;100.00
45403;BME280;47427;51.976;5.326;2023-05-25T05:20:53;102721.41;;;9.14;100.00
45403;BME280;47427;51.976;5.326;2023-05-25T05:24:14;102724.03;;;9.29;100.00
45403;BME280;47427;51.976;5.326;2023-05-25T05:27:56;102720.56;;;9.43;100.00
45403;BME280;47427;51.976;5.326;2023-05-25T05:31:21;102710.81;;;9.55;100.00
45403;BME280;47427;51.976;5.326;2023-05-25T05:34:44;102720.69;;;9.74;100.00
45403;BME280;47427;51.976;5.326;2023-05-25T05:38:25;102724.31;;;9.91;100.00
45403;BME280;47427;51.976;5.326;2023-05-25T05:41:47;102732.44;;;10.11;100.00
45403;BME280;47427;51.976;5.326;2023-05-25T05:45:10;102742.09;;;10.27;100.00
45403;BME280;47427;51.976;5.326;2023-05-25T05:48:33;102742.03;;;10.40;100.00
45403;BME280;47427;51.976;5.326;2023-05-25T05:51:54;102746.78;;;10.62;100.00
45403;BME280;47427;51.976;5.326;2023-05-25T05:55:17;102740.81;;;10.81;100.00
45403;BME280;47427;51.976;5.326;2023-05-25T05:58:44;102749.81;;;11.01;100.00
45403;BME280;47427;51.976;5.326;2023-05-25T06:02:05;102754.34;;;11.20;100.00
45403;BME280;47427;51.976;5.326;2023-05-25T06:05:29;102758.59;;;11.34;100.00
45403;BME280;47427;51.976;5.326;2023-05-25T06:08:51;102768.25;;;11.50;100.00
45403;BME280;47427;51.976;5.326;2023-05-25T06:12:14;102764.28;;;11.58;100.00
45403;BME280;47427;51.976;5.326;2023-05-25T06:15:37;102764.19;;;11.73;100.00
45403;BME280;47427;51.976;5.326;2023-05-25T06:19:04;102775.25;;;11.84;100.00
45403;BME280;47427;51.976;5.326;2023-05-25T06:22:27;102775.44;;;11.87;100.00
45403;BME280;47427;51.976;5.326;2023-05-25T06:25:51;102778.06;;;12.03;100.00
45403;BME280;47427;51.976;5.326;2023-05-25T06:29:36;102780.72;;;12.39;100.00
45403;BME280;47427;51.976;5.326;2023-05-25T06:32:58;102785.53;;;12.66;100.00
45403;BME280;47427;51.976;5.326;2023-05-25T06:36:21;102790.13;;;12.88;100.00
45403;BME280;47427;51.976;5.326;2023-05-25T06:39:44;102784.94;;;13.27;100.00
45403;BME280;47427;51.976;5.326;2023-05-25T06:43:07;102787.50;;;14.03;100.00
45403;BME280;47427;51.976;5.326;2023-05-25T06:46:37;102787.75;;;14.72;100.00
45403;BME280;47427;51.976;5.326;2023-05-25T06:50:00;102790.88;;;14.84;100.00
45403;BME280;47427;51.976;5.326;2023-05-25T06:53:21;102793.09;;;14.96;100.00
45403;BME280;47427;51.976;5.326;2023-05-25T06:56:45;102786.22;;;15.24;100.00
45403;BME280;47427;51.976;5.326;2023-05-25T07:00:08;102783.44;;;15.43;99.61
45403;BME280;47427;51.976;5.326;2023-05-25T07:03:32;102787.09;;;15.47;99.24
45403;BME280;47427;51.976;5.326;2023-05-25T07:06:55;102800.78;;;15.59;98.33
45403;BME280;47427;51.976;5.326;2023-05-25T07:10:17;102807.53;;;15.51;97.48
45403;BME280;47427;51.976;5.326;2023-05-25T07:13:40;102798.41;;;15.43;98.25
45403;BME280;47427;51.976;5.326;2023-05-25T07:17:03;102798.09;;;15.57;97.78
45403;BME280;47427;51.976;5.326;2023-05-25T07:20:24;102800.66;;;15.56;98.00
45403;BME280;47427;51.976;5.326;2023-05-25T07:23:48;102805.53;;;15.68;97.44
45403;BME280;47427;51.976;5.326;2023-05-25T07:27:12;102808.47;;;15.75;96.26
45403;BME280;47427;51.976;5.326;2023-05-25T07:30:34;102809.56;;;16.06;95.06
45403;BME280;47427;51.976;5.326;2023-05-25T07:33:57;102807.34;;;16.18;93.23
45403;BME280;47427;51.976;5.326;2023-05-25T07:37:38;102812.19;;;16.57;91.37
45403;BME280;47427;51.976;5.326;2023-05-25T07:41:00;102820.78;;;17.93;84.52
45403;BME280;47427;51.976;5.326;2023-05-25T07:44:23;102808.84;;;18.11;82.94
45403;BME280;47427;51.976;5.326;2023-05-25T07:47:44;102821.03;;;18.72;80.61
45403;BME280;47427;51.976;5.326;2023-05-25T07:51:07;102821.44;;;18.18;79.50
45403;BME280;47427;51.976;5.326;2023-05-25T07:54:30;102839.50;;;18.66;76.74
45403;BME280;47427;51.976;5.326;2023-05-25T07:57:52;102867.75;;;20.70;61.61
45403;BME280;47427;51.976;5.326;2023-05-25T08:01:15;102855.53;;;19.86;60.82
45403;BME280;47427;51.976;5.326;2023-05-25T08:04:38;102848.09;;;18.91;62.02
45403;BME280;47427;51.976;5.326;2023-05-25T08:08:01;102832.84;;;18.14;64.52
45403;BME280;47427;51.976;5.326;2023-05-25T08:11:24;102843.59;;;18.53;64.00
45403;BME280;47427;51.976;5.326;2023-05-25T08:14:48;102856.19;;;18.60;62.38
45403;BME280;47427;51.976;5.326;2023-05-25T08:18:12;102852.31;;;18.48;62.91
45403;BME280;47427;51.976;5.326;2023-05-25T08:21:35;102853.00;;;18.39;63.73
45403;BME280;47427;51.976;5.326;2023-05-25T08:24:58;102865.56;;;19.17;62.25
45403;BME280;47427;51.976;5.326;2023-05-25T08:28:21;102889.44;;;19.95;58.89
45403;BME280;47427;51.976;5.326;2023-05-25T08:31:42;102954.84;;;21.79;52.66
45403;BME280;47427;51.976;5.326;2023-05-25T08:35:07;102934.91;;;21.53;54.44
45403;BME280;47427;51.976;5.326;2023-05-25T08:38:31;102952.25;;;21.26;52.44
45403;BME280;47427;51.976;5.326;2023-05-25T08:41:52;102926.94;;;21.01;54.09
45403;BME280;47427;51.976;5.326;2023-05-25T08:45:15;102920.88;;;21.11;54.43
45403;BME280;47427;51.976;5.326;2023-05-25T08:48:38;102908.06;;;20.89;54.90
45403;BME280;47427;51.976;5.326;2023-05-25T08:51:59;102893.72;;;20.32;56.50
45403;BME280;47427;51.976;5.326;2023-05-25T08:55:24;102904.34;;;20.29;55.13
45403;BME280;47427;51.976;5.326;2023-05-25T08:59:02;102909.59;;;20.73;54.23
45403;BME280;47427;51.976;5.326;2023-05-25T09:06:05;102976.00;;;23.21;47.88
45403;BME280;47427;51.976;5.326;2023-05-25T09:09:27;103028.59;;;24.58;44.02
45403;BME280;47427;51.976;5.326;2023-05-25T09:12:50;103056.50;;;25.33;42.47
45403;BME280;47427;51.976;5.326;2023-05-25T09:16:15;103025.16;;;25.22;43.37
45403;BME280;47427;51.976;5.326;2023-05-25T09:19:38;103015.19;;;24.54;44.19
45403;BME280;47427;51.976;5.326;2023-05-25T09:23:00;103004.19;;;23.97;45.16
45403;BME280;47427;51.976;5.326;2023-05-25T09:26:25;103131.16;;;28.31;35.68
45403;BME280;47427;51.976;5.326;2023-05-25T09:29:49;103118.28;;;25.79;37.64
45403;BME280;47427;51.976;5.326;2023-05-25T09:33:13;103056.09;;;24.05;40.94
45403;BME280;47427;51.976;5.326;2023-05-25T09:36:35;103050.19;;;25.57;39.70
45403;BME280;47427;51.976;5.326;2023-05-25T09:40:00;103202.88;;;31.98;29.61
45403;BME280;47427;51.976;5.326;2023-05-25T09:43:23;103276.50;;;35.03;26.39
45403;BME280;47427;51.976;5.326;2023-05-25T09:46:45;103282.09;;;32.50;26.67
45403;BME280;47427;51.976;5.326;2023-05-25T09:50:08;103210.03;;;30.84;28.81
45403;BME280;47427;51.976;5.326;2023-05-25T09:53:33;103274.44;;;35.77;24.77
45403;BME280;47427;51.976;5.326;2023-05-25T09:56:55;103281.81;;;34.59;24.41
45403;BME280;47427;51.976;5.326;2023-05-25T10:00:17;103320.28;;;36.76;21.43
45403;BME280;47427;51.976;5.326;2023-05-25T10:03:46;103342.78;;;38.15;20.93
45403;BME280;47427;51.976;5.326;2023-05-25T10:07:08;103362.19;;;38.82;20.35
45403;BME280;47427;51.976;5.326;2023-05-25T10:10:31;103378.44;;;40.15;18.39
45403;BME280;47427;51.976;5.326;2023-05-25T10:13:55;103379.03;;;40.66;18.18
45403;BME280;47427;51.976;5.326;2023-05-25T10:17:22;103384.31;;;41.00;17.72
45403;BME280;47427;51.976;5.326;2023-05-25T10:20:47;103397.56;;;40.79;17.24
45403;BME280;47427;51.976;5.326;2023-05-25T10:24:27;103337.16;;;37.82;19.84
45403;BME280;47427;51.976;5.326;2023-05-25T10:28:01;103339.72;;;39.88;18.92
45403;BME280;47427;51.976;5.326;2023-05-25T10:31:24;103372.28;;;39.96;17.22
45403;BME280;47427;51.976;5.326;2023-05-25T10:34:51;103352.19;;;36.96;19.52
45403;BME280;47427;51.976;5.326;2023-05-25T10:38:15;103279.06;;;33.51;22.50
45403;BME280;47427;51.976;5.326;2023-05-25T10:41:37;103267.22;;;34.84;22.54
45403;BME280;47427;51.976;5.326;2023-05-25T10:45:21;103280.16;;;36.96;20.38
45403;BME280;47427;51.976;5.326;2023-05-25T10:48:48;103259.75;;;34.40;22.89
45403;BME280;47427;51.976;5.326;2023-05-25T10:52:17;103246.06;;;35.81;22.35
45403;BME280;47427;51.976;5.326;2023-05-25T10:55:47;103268.69;;;35.17;21.87
45403;BME280;47427;51.976;5.326;2023-05-25T10:59:12;103232.94;;;32.57;24.37
45403;BME280;47427;51.976;5.326;2023-05-25T11:02:52;103269.59;;;36.06;21.29
45403;BME280;47427;51.976;5.326;2023-05-25T11:06:21;103250.56;;;33.35;23.63
45403;BME280;47427;51.976;5.326;2023-05-25T11:09:55;103202.66;;;30.92;26.13
45403;BME280;47427;51.976;5.326;2023-05-25T11:13:36;103139.09;;;28.43;28.80
45403;BME280;47427;51.976;5.326;2023-05-25T11:17:14;103105.63;;;26.34;31.13
45403;BME280;47427;51.976;5.326;2023-05-25T11:20:38;103068.13;;;25.61;33.32
45403;BME280;47427;51.976;5.326;2023-05-25T11:24:18;103063.66;;;25.43;32.86
45403;BME280;47427;51.976;5.326;2023-05-25T11:27:45;103040.31;;;24.86;33.88
45403;BME280;47427;51.976;5.326;2023-05-25T11:31:08;103031.38;;;25.00;34.37
45403;BME280;47427;51.976;5.326;2023-05-25T11:34:34;103017.97;;;25.24;34.15
45403;BME280;47427;51.976;5.326;2023-05-25T11:37:57;103012.47;;;25.95;33.50
45403;BME280;47427;51.976;5.326;2023-05-25T11:41:23;103027.22;;;26.94;32.49
45403;BME280;47427;51.976;5.326;2023-05-25T11:44:44;103044.63;;;27.60;30.50
45403;BME280;47427;51.976;5.326;2023-05-25T11:48:12;103037.97;;;26.96;31.39
45403;BME280;47427;51.976;5.326;2023-05-25T11:51:35;103008.81;;;26.19;33.61
45403;BME280;47427;51.976;5.326;2023-05-25T11:54:58;102994.66;;;25.42;34.52
45403;BME280;47427;51.976;5.326;2023-05-25T11:58:19;102982.13;;;25.08;34.48
45403;BME280;47427;51.976;5.326;2023-05-25T12:01:42;102979.47;;;25.25;34.04
45403;BME280;47427;51.976;5.326;2023-05-25T12:05:04;102976.66;;;25.76;34.31
45403;BME280;47427;51.976;5.326;2023-05-25T12:08:36;102991.13;;;27.18;32.14
45403;BME280;47427;51.976;5.326;2023-05-25T12:11:58;103023.47;;;28.05;30.36
45403;BME280;47427;51.976;5.326;2023-05-25T12:15:23;103015.94;;;27.54;31.30
45403;BME280;47427;51.976;5.326;2023-05-25T12:18:46;103057.91;;;30.15;28.78
45403;BME280;47427;51.976;5.326;2023-05-25T12:22:08;103060.88;;;29.02;29.76
45403;BME280;47427;51.976;5.326;2023-05-25T12:25:31;103034.44;;;28.62;30.36
45403;BME280;47427;51.976;5.326;2023-05-25T12:29:01;103063.06;;;28.77;29.19
45403;BME280;47427;51.976;5.326;2023-05-25T12:32:23;103045.31;;;28.56;30.07
45403;BME280;47427;51.976;5.326;2023-05-25T12:35:55;103053.44;;;27.77;30.53
45403;BME280;47427;51.976;5.326;2023-05-25T12:43:12;103020.25;;;27.71;31.50
45403;BME280;47427;51.976;5.326;2023-05-25T12:46:35;103025.09;;;27.36;31.30
45403;BME280;47427;51.976;5.326;2023-05-25T12:50:13;103037.44;;;28.38;29.89
45403;BME280;47427;51.976;5.326;2023-05-25T12:53:51;103094.53;;;32.79;25.02
45403;BME280;47427;51.976;5.326;2023-05-25T12:57:16;103179.78;;;36.19;21.42
45403;BME280;47427;51.976;5.326;2023-05-25T13:00:39;103168.44;;;32.31;23.97
45403;BME280;47427;51.976;5.326;2023-05-25T13:04:02;103115.38;;;28.70;27.60
45403;BME280;47427;51.976;5.326;2023-05-25T13:07:24;103056.75;;;27.10;30.80
45403;BME280;47427;51.976;5.326;2023-05-25T13:10:49;103099.16;;;31.82;25.71
45403;BME280;47427;51.976;5.326;2023-05-25T13:14:11;103108.13;;;29.35;27.00
45403;BME280;47427;51.976;5.326;2023-05-25T13:17:53;103060.06;;;27.45;30.34
45403;BME280;47427;51.976;5.326;2023-05-25T13:21:16;103018.88;;;27.28;31.69
45403;BME280;47427;51.976;5.326;2023-05-25T13:24:38;102998.91;;;26.29;32.68
45403;BME280;47427;51.976;5.326;2023-05-25T13:28:00;102973.94;;;25.90;33.61
45403;BME280;47427;51.976;5.326;2023-05-25T13:31:22;102964.88;;;26.08;34.14
45403;BME280;47427;51.976;5.326;2023-05-25T13:34:45;103008.22;;;30.60;28.00
45403;BME280;47427;51.976;5.326;2023-05-25T13:38:08;103075.44;;;32.81;25.63
45403;BME280;47427;51.976;5.326;2023-05-25T13:41:30;103148.66;;;35.38;22.04
45403;BME280;47427;51.976;5.326;2023-05-25T13:44:53;103175.19;;;35.12;22.38
45403;BME280;47427;51.976;5.326;2023-05-25T13:48:16;103181.66;;;33.87;22.66
45403;BME280;47427;51.976;5.326;2023-05-25T13:51:38;103146.13;;;32.81;23.41
45403;BME280;47427;51.976;5.326;2023-05-25T13:55:01;103095.34;;;30.80;25.87
45403;BME280;47427;51.976;5.326;2023-05-25T13:58:42;103066.59;;;28.81;28.09
45403;BME280;47427;51.976;5.326;2023-05-25T14:02:06;103049.81;;;27.84;29.36
45403;BME280;47427;51.976;5.326;2023-05-25T14:05:28;103045.16;;;27.99;28.30
45403;BME280;47427;51.976;5.326;2023-05-25T14:08:50;103030.56;;;27.30;29.36
45403;BME280;47427;51.976;5.326;2023-05-25T14:12:13;103050.84;;;31.28;26.23
45403;BME280;47427;51.976;5.326;2023-05-25T14:15:35;103082.91;;;30.72;25.72
45403;BME280;47427;51.976;5.326;2023-05-25T14:18:57;103052.53;;;28.57;28.11
45403;BME280;47427;51.976;5.326;2023-05-25T14:22:20;103018.53;;;26.43;30.58
45403;BME280;47427;51.976;5.326;2023-05-25T14:25:42;102990.13;;;25.78;32.76
45403;BME280;47427;51.976;5.326;2023-05-25T14:29:04;102975.81;;;25.59;32.66
45403;BME280;47427;51.976;5.326;2023-05-25T14:32:25;102960.63;;;25.12;33.74
45403;BME280;47427;51.976;5.326;2023-05-25T14:35:48;102959.75;;;25.13;33.87
45403;BME280;47427;51.976;5.326;2023-05-25T14:39:11;102958.84;;;25.21;33.46
45403;BME280;47427;51.976;5.326;2023-05-25T14:42:34;102996.59;;;29.21;29.00
45403;BME280;47427;51.976;5.326;2023-05-25T14:45:56;103050.38;;;31.46;25.99
45403;BME280;47427;51.976;5.326;2023-05-25T14:49:18;103102.59;;;33.91;23.65
45403;BME280;47427;51.976;5.326;2023-05-25T14:52:46;103082.88;;;30.73;26.00
45403;BME280;47427;51.976;5.326;2023-05-25T14:56:07;103041.91;;;28.42;28.75
45403;BME280;47427;51.976;5.326;2023-05-25T14:59:31;103006.28;;;27.30;30.54
45403;BME280;47427;51.976;5.326;2023-05-25T15:02:52;103031.75;;;28.61;28.29
45403;BME280;47427;51.976;5.326;2023-05-25T15:06:15;103038.09;;;30.96;26.22
45403;BME280;47427;51.976;5.326;2023-05-25T15:09:38;103085.81;;;33.24;23.82
45403;BME280;47427;51.976;5.326;2023-05-25T15:13:01;103123.28;;;35.14;21.92
45403;BME280;47427;51.976;5.326;2023-05-25T15:16:24;103129.25;;;32.38;22.88
45403;BME280;47427;51.976;5.326;2023-05-25T15:19:47;103065.72;;;28.09;27.30
45403;BME280;47427;51.976;5.326;2023-05-25T15:23:08;103030.16;;;29.09;27.20
45403;BME280;47427;51.976;5.326;2023-05-25T15:26:31;103064.38;;;32.59;24.28
45403;BME280;47427;51.976;5.326;2023-05-25T15:29:52;103090.06;;;32.49;24.08
45403;BME280;47427;51.976;5.326;2023-05-25T15:33:15;103099.63;;;33.45;22.66
45403;BME280;47427;51.976;5.326;2023-05-25T15:36:38;103104.56;;;32.77;23.27
45403;BME280;47427;51.976;5.326;2023-05-25T15:39:59;103082.44;;;29.59;25.57
45403;BME280;47427;51.976;5.326;2023-05-25T15:43:22;103042.19;;;29.91;26.58
45403;BME280;47427;51.976;5.326;2023-05-25T15:46:45;103057.09;;;30.13;25.40
45403;BME280;47427;51.976;5.326;2023-05-25T15:50:07;103052.34;;;31.04;25.07
45403;BME280;47427;51.976;5.326;2023-05-25T15:53:48;103040.00;;;27.76;27.89
45403;BME280;47427;51.976;5.326;2023-05-25T15:57:09;103011.38;;;28.37;27.13
45403;BME280;47427;51.976;5.326;2023-05-25T16:00:32;103016.63;;;29.09;27.37
45403;BME280;47427;51.976;5.326;2023-05-25T16:03:55;103018.13;;;29.26;27.05
45403;BME280;47427;51.976;5.326;2023-05-25T16:07:16;103016.00;;;27.48;29.12
45403;BME280;47427;51.976;5.326;2023-05-25T16:10:39;102980.50;;;26.95;30.37
45403;BME280;47427;51.976;5.326;2023-05-25T16:14:02;102975.38;;;26.63;30.22
45403;BME280;47427;51.976;5.326;2023-05-25T16:17:23;102957.06;;;25.37;31.93
45403;BME280;47427;51.976;5.326;2023-05-25T16:20:46;102929.19;;;24.23;33.87
45403;BME280;47427;51.976;5.326;2023-05-25T16:24:08;102906.56;;;23.53;35.42
45403;BME280;47427;51.976;5.326;2023-05-25T16:27:31;102887.47;;;22.98;37.07
45403;BME280;47427;51.976;5.326;2023-05-25T16:30:54;102875.47;;;22.48;37.90
45403;BME280;47427;51.976;5.326;2023-05-25T16:34:17;102863.47;;;22.11;38.18
45403;BME280;47427;51.976;5.326;2023-05-25T16:37:39;102848.72;;;21.69;39.26
45403;BME280;47427;51.976;5.326;2023-05-25T16:41:02;102833.03;;;21.28;39.81
45403;BME280;47427;51.976;5.326;2023-05-25T16:44:24;102815.47;;;20.82;41.19
45403;BME280;47427;51.976;5.326;2023-05-25T16:47:46;102804.81;;;20.83;41.02
45403;BME280;47427;51.976;5.326;2023-05-25T16:51:09;102804.63;;;20.69;42.16
45403;BME280;47427;51.976;5.326;2023-05-25T16:54:35;102801.63;;;20.51;42.26
45403;BME280;47427;51.976;5.326;2023-05-25T16:57:58;102794.41;;;20.44;42.65
45403;BME280;47427;51.976;5.326;2023-05-25T17:01:19;102784.25;;;20.23;43.17
45403;BME280;47427;51.976;5.326;2023-05-25T17:04:42;102778.50;;;20.00;43.87
45403;BME280;47427;51.976;5.326;2023-05-25T17:08:05;102761.97;;;19.67;44.30
45403;BME280;47427;51.976;5.326;2023-05-25T17:11:26;102754.63;;;19.57;44.95
45403;BME280;47427;51.976;5.326;2023-05-25T17:14:49;102747.03;;;19.33;45.30
45403;BME280;47427;51.976;5.326;2023-05-25T17:18:12;102740.75;;;19.30;45.51
45403;BME280;47427;51.976;5.326;2023-05-25T17:21:33;102750.31;;;19.21;45.31
45403;BME280;47427;51.976;5.326;2023-05-25T17:24:56;102730.22;;;18.92;46.39
45403;BME280;47427;51.976;5.326;2023-05-25T17:28:18;102724.41;;;18.73;46.87
45403;BME280;47427;51.976;5.326;2023-05-25T17:31:41;102720.53;;;18.57;47.21
45403;BME280;47427;51.976;5.326;2023-05-25T17:35:04;102715.78;;;18.44;47.78
45403;BME280;47427;51.976;5.326;2023-05-25T17:38:25;102701.44;;;18.37;48.15
45403;BME280;47427;51.976;5.326;2023-05-25T17:41:49;102695.94;;;18.28;48.54
45403;BME280;47427;51.976;5.326;2023-05-25T17:45:12;102691.78;;;18.03;49.13
45403;BME280;47427;51.976;5.326;2023-05-25T17:48:53;102692.44;;;17.94;49.57
45403;BME280;47427;51.976;5.326;2023-05-25T17:52:14;102688.25;;;17.71;50.21
45403;BME280;47427;51.976;5.326;2023-05-25T17:55:36;102675.75;;;17.67;50.99
45403;BME280;47427;51.976;5.326;2023-05-25T17:58:59;102681.31;;;17.43;51.50